Latest Coastal Weather Observations for Cape Grim

IDT60701

Issued at 5:32 am EDT Tuesday 7 February 2023 (issued every 10 minutes, with the page automatically refreshed every 10 minutes)

About coastal observations | Map of coastal stations | Coastal observations for TAS | Marine services | Other Formats
Station Details ID: 091331 Name: CAPE GRIM Lat: -40.68 Lon: 144.69 Height: 86.0 m
Data from the previous 72 hours. | See also: Recent months at Cape Grim
Date/Time
EDT
Wind Sea
Height
m
Swell Vis
km
Cloud Weather Temp
°C
Press
MSL
hPa
Rain since
9am
mm
Dir  Spd
kts
Gust
kts
Height
m
Period
s
Dir
07/05:30am SW 22 27 - - - - - Cloudy - 13.9 1017.4 0.0
07/05:00am SW 19 25 - - - - - Cloudy - 14.4 1017.4 0.0
07/04:30am SW 18 23 - - - - - Cloudy - 14.5 1017.5 0.0
07/04:00am SW 18 23 - - - - - Cloudy - 14.5 1017.7 0.0
07/03:30am SW 17 24 - - - - - Cloudy - 14.7 1017.8 0.0
07/03:00am SW 20 26 - - - - - Cloudy - 14.5 1018.0 0.0
07/02:30am SW 20 25 - - - - - Cloudy - 14.4 1018.0 0.0
07/02:00am SW 21 27 - - - - - Partly cloudy - 14.4 1018.1 0.0
07/01:30am SW 21 26 - - - - - Partly cloudy - 14.8 1018.2 0.0
07/01:00am SW 18 28 - - - - - Partly cloudy - 14.8 1018.3 0.0
07/12:30am SW 19 24 - - - - - Partly cloudy - 14.6 1018.4 0.0
07/12:00am SW 18 23 - - - - - Cloudy - 14.9 1018.6 0.0
 
Date/Time
EDT
Wind Sea
Height
m
Swell Vis
km
Cloud Weather Temp
°C
Press
MSL
hPa
Rain since
9am
mm
Dir  Spd
kts
Gust
kts
Height
m
Period
s
Dir
06/11:30pm SW 21 26 - - - - - Partly cloudy - 14.9 1018.7 0.0
06/11:00pm SW 21 26 - - - - - Partly cloudy - 14.9 1018.8 0.0
06/10:30pm SW 21 30 - - - - - Partly cloudy - 15.0 1018.9 0.0
06/10:00pm SW 21 25 - - - - - Partly cloudy - 15.4 1018.7 0.0
06/09:30pm SW 20 25 - - - - - Partly cloudy - 15.4 1018.5 0.0
06/09:00pm SW 20 25 - - - - - Cloudy - 15.4 1018.3 0.0
06/08:30pm SW 20 25 - - - - - Partly cloudy - 15.2 1018.1 0.0
06/08:00pm SW 19 24 - - - - - Partly cloudy - 14.9 1017.9 0.0
06/07:32pm SW 20 24 - - - - - Partly cloudy - 15.1 1017.9 0.0
06/07:30pm SW 21 28 - - - - - Partly cloudy - 15.0 1017.8 0.0
06/07:21pm SW 23 29 - - - - - Partly cloudy - 15.0 1017.8 0.0
06/07:00pm SW 20 27 - - - - - Partly cloudy - 15.3 1017.6 0.0
06/06:30pm SW 16 24 - - - - - Partly cloudy - 15.9 1017.6 0.0
06/06:04pm SW 15 26 - - - - - Partly cloudy - 16.6 1017.7 0.0
06/06:00pm WSW 14 26 - - - - - Partly cloudy - 16.7 1017.7 0.0
06/05:30pm SW 14 22 - - - - - Partly cloudy - 16.8 1017.8 0.0
06/05:00pm SW 19 25 - - - - - Partly cloudy - 17.3 1018.0 0.0
06/04:30pm SW 20 24 - - - - - Partly cloudy - 16.7 1018.2 0.0
06/04:00pm SW 21 26 - - - - - Partly cloudy - 17.3 1018.3 0.0
06/03:30pm SW 19 25 - - - - - Partly cloudy - 16.8 1018.3 0.0
06/03:00pm SW 17 28 - - - - - Cloudy - 17.4 1018.4 0.0
06/02:51pm SW 17 28 - - - - - Cloudy - 17.1 1018.4 0.0
06/02:30pm SW 17 24 - - - - - Partly cloudy - 17.4 1018.5 0.0
06/02:00pm SW 19 25 - - - - - Partly cloudy - 17.1 1018.6 0.0
06/01:50pm SW 15 25 - - - - - Partly cloudy - 16.2 1018.5 0.0
06/01:33pm SW 17 21 - - - - - Partly cloudy - 16.0 1018.6 0.0
06/01:30pm SW 17 23 - - - - - Partly cloudy - 16.0 1018.6 0.0
06/01:19pm SW 17 25 - - - - - Partly cloudy - 15.9 1018.5 0.0
06/01:02pm WSW 15 25 - - - - - Partly cloudy - 16.4 1018.5 0.0
06/01:00pm WSW 14 23 - - - - - Partly cloudy - 16.5 1018.4 0.0
06/12:30pm WSW 13 21 - - - - - Partly cloudy - 16.4 1018.5 0.0
06/12:00pm WSW 14 23 - - - - - Mostly clear - 16.5 1018.7 0.0
06/11:47am WSW 10 19 - - - - - Partly cloudy - 16.2 1018.7 0.0
06/11:30am WSW 13 22 - - - - - Partly cloudy - 15.7 1018.6 0.0
06/11:11am WSW 13 22 - - - - - Partly cloudy - 15.9 1018.4 0.0
06/11:09am WSW 12 22 - - - - - Partly cloudy - 16.3 1018.4 0.0
06/11:00am WSW 13 23 - - - - - Partly cloudy - 15.7 1018.4 0.0
06/10:48am WSW 11 21 - - - - - Partly cloudy - 16.1 1018.3 0.0
06/10:30am WSW 13 21 - - - - - Partly cloudy - 15.8 1018.3 0.0
06/10:18am WSW 13 20 - - - - - Partly cloudy - 15.5 1018.4 0.0
06/10:00am WSW 11 19 - - - - - Partly cloudy - 15.5 1018.2 0.0
06/09:30am SW 16 20 - - - - - Partly cloudy - 15.3 1018.1 0.0
06/09:17am SW 11 19 - - - - - Partly cloudy - 15.5 1018.1 0.0
06/09:13am SW 11 21 - - - - - Partly cloudy - 15.6 1018.0 0.0
06/09:00am SW 13 22 - - - - - Cloudy - 15.2 1018.0 0.0
06/08:55am SW 14 22 - - - - - Partly cloudy - 15.3 1018.0 0.0
06/08:30am W 10 19 - - - - - Partly cloudy - 15.5 1017.6 0.0
06/08:00am WSW 10 20 - - - - - Partly cloudy - 15.3 1017.2 0.0
06/07:30am SW 14 21 - - - - - Partly cloudy - 15.1 1017.3 0.0
06/07:00am SW 19 29 - - - - - Partly cloudy - 13.9 1017.1 0.0
06/06:56am SW 17 29 - - - - - Partly cloudy - 14.1 1017.1 0.0
06/06:40am WSW 15 26 - - - - - Partly cloudy - 14.4 1016.8 0.0
06/06:33am WSW 11 19 - - - - - Partly cloudy - 14.4 1016.8 0.0
06/06:30am W 12 19 - - - - - Partly cloudy - 14.4 1016.7 0.0
06/06:00am SW 18 25 - - - - - Mostly cloudy - 14.1 1016.4 0.0
06/05:30am SW 18 22 - - - - - Partly cloudy - 14.1 1016.2 0.0
06/05:00am SW 17 22 - - - - - Cloudy - 15.1 1015.8 0.0
06/04:30am W 12 19 - - - - - Cloudy - 15.1 1015.8 0.0
06/04:04am SW 15 25 - - - - - Cloudy - 15.2 1015.8 0.0
06/04:00am WSW 13 21 - - - - - Cloudy - 15.3 1015.8 0.0
06/03:37am SW 15 25 - - - - - Cloudy - 15.1 1015.8 0.0
06/03:30am SW 16 24 - - - - - Cloudy - 15.1 1015.8 0.0
06/03:00am WSW 14 25 - - - - - Cloudy - 15.0 1016.1 0.0
06/02:49am SW 16 26 - - - - - Cloudy - 15.1 1016.0 0.0
06/02:30am SW 18 25 - - - - - Cloudy - 15.1 1015.9 0.0
06/02:00am SW 17 24 - - - - - Cloudy - 15.2 1015.8 0.0
06/01:30am SW 16 21 - - - - - Cloudy - 15.1 1016.2 0.0
06/01:00am SW 17 24 - - - - - Cloudy - 14.9 1016.4 0.0
06/12:30am WSW 14 23 - - - - - Cloudy - 15.0 1016.4 0.0
06/12:00am WSW 11 19 - - - - - Cloudy - 14.8 1016.6 0.0
 
Date/Time
EDT
Wind Sea
Height
m
Swell Vis
km
Cloud Weather Temp
°C
Press
MSL
hPa
Rain since
9am
mm
Dir  Spd
kts
Gust
kts
Height
m
Period
s
Dir
05/11:30pm SW 17 23 - - - - - Cloudy - 14.9 1016.5 0.0
05/11:14pm SW 16 26 - - - - - Cloudy - 14.6 1016.4 0.0
05/11:00pm SW 20 26 - - - - - Cloudy - 14.8 1016.5 0.0
05/10:30pm SW 17 28 - - - - - Cloudy - 15.1 1016.6 0.0
05/10:24pm SW 15 25 - - - - - Cloudy - 15.0 1016.6 0.0
05/10:00pm SW 15 22 - - - - - Cloudy - 14.9 1016.6 0.0
05/09:41pm SW 17 27 - - - - - Partly cloudy - 14.9 1016.5 0.0
05/09:30pm SW 20 25 - - - - - Partly cloudy - 14.8 1016.4 0.0
05/09:02pm WSW 15 25 - - - - - Partly cloudy - 14.8 1016.2 0.0
05/09:00pm WSW 14 25 - - - - - Cloudy - 14.8 1016.2 0.0
05/08:30pm SW 14 21 - - - - - Partly cloudy - 14.2 1016.0 0.0
05/08:00pm SW 15 22 - - - - - Cloudy - 14.8 1015.9 0.0
05/07:30pm WSW 11 22 - - - - - Partly cloudy - 15.0 1015.7 0.0
05/07:00pm SW 15 23 - - - - - Cloudy - 15.5 1015.6 0.0
05/06:30pm WSW 10 18 - - - - - Partly cloudy - 15.5 1015.5 0.0
05/06:00pm SW 15 21 - - - - - Cloudy - 15.5 1015.6 0.0
05/05:30pm SW 14 19 - - - - - Cloudy - 16.0 1015.7 0.0
05/05:00pm SW 13 19 - - - - - Partly cloudy - 16.1 1015.8 0.0
05/04:30pm WSW 11 19 - - - - - Partly cloudy - 16.6 1015.8 0.0
05/04:00pm SW 15 22 - - - - - Partly cloudy - 16.5 1015.8 0.0
05/03:30pm SW 15 22 - - - - - Cloudy - 16.2 1015.9 0.0
05/03:00pm SW 16 24 - - - - - Cloudy - 16.4 1015.9 0.0
05/02:30pm SW 16 22 - - - - - Cloudy - 16.5 1015.7 0.0
05/02:00pm WSW 13 22 - - - - - Partly cloudy - 15.7 1015.8 0.0
05/01:30pm WSW 10 16 - - - - - Cloudy - 15.2 1015.9 0.0
05/01:00pm SW 16 19 - - - - - Cloudy - 15.9 1015.9 0.0
05/12:30pm SW 16 21 - - - - - Cloudy - 16.4 1015.6 0.0
05/12:00pm SW 17 21 - - - - - Cloudy - 16.8 1015.6 0.0
05/11:30am SW 16 21 - - - - - Cloudy - 17.1 1015.5 0.0
05/11:00am SW 14 20 - - - - - Partly cloudy - 16.2 1015.4 0.0
05/10:30am SW 18 23 - - - - - Cloudy - 15.6 1015.1 0.0
05/10:00am SW 13 22 - - - - - Cloudy - 15.0 1014.9 0.0
05/09:30am WSW 12 20 - - - - - Cloudy - 15.1 1014.8 0.0
05/09:19am SW 17 27 - - - - - Cloudy - 15.1 1014.8 0.0
05/09:00am SW 19 23 - - - - - Cloudy - 15.0 1014.5 0.0
05/08:30am SW 17 22 - - - - - Cloudy - 15.0 1014.2 0.0
05/08:00am WSW 12 22 - - - - - Cloudy - 14.9 1013.8 0.0
05/07:30am SW 17 23 - - - - - Cloudy - 15.0 1013.2 0.0
05/07:00am SW 19 24 - - - - - Cloudy - 15.0 1012.8 0.0
05/06:30am SW 16 23 - - - - - Cloudy - 15.0 1012.4 0.0
05/06:00am SW 20 25 - - - - - Cloudy - 15.0 1012.0 0.0
05/05:52am SW 19 29 - - - - - Partly cloudy - 15.3 1011.9 0.0
05/05:30am SW 21 27 - - - - - Partly cloudy - 14.9 1011.4 0.0
05/05:00am SW 22 28 - - - - - Partly cloudy - 14.6 1011.1 0.0
05/04:30am SW 23 28 - - - - - Cloudy - 15.1 1010.5 0.0
05/04:00am SW 24 30 - - - - - Partly cloudy - 15.1 1010.2 0.0
05/03:30am SW 25 32 - - - - - Partly cloudy - 15.0 1010.2 0.0
05/03:00am SW 26 33 - - - - - Cloudy - 14.6 1010.1 0.0
05/02:48am SW 23 33 - - - - - Cloudy - 14.6 1010.1 0.0
05/02:30am SW 24 32 - - - - - Cloudy - 14.9 1010.0 0.0
05/02:00am SW 26 33 - - - - - Partly cloudy - 14.5 1009.8 0.0
05/01:34am SW 23 35 - - - - - Partly cloudy - 14.7 1009.9 0.0
05/01:30am SW 24 31 - - - - - Cloudy - 14.7 1010.0 0.0
05/01:00am SW 27 35 - - - - - Partly cloudy - 14.5 1010.2 0.0
05/12:30am SW 23 30 - - - - - Partly cloudy - 14.8 1010.0 0.0
05/12:00am SW 20 31 - - - - - Cloudy - 14.9 1010.0 0.0
 
Date/Time
EDT
Wind Sea
Height
m
Swell Vis
km
Cloud Weather Temp
°C
Press
MSL
hPa
Rain since
9am
mm
Dir  Spd
kts
Gust
kts
Height
m
Period
s
Dir
04/11:30pm SW 21 31 - - - - - Cloudy - 15.0 1009.9 0.0
04/11:02pm SW 24 34 - - - - - Partly cloudy - 15.2 1009.8 0.0
04/11:00pm SW 25 34 - - - - - Partly cloudy - 15.1 1009.8 0.0
04/10:42pm SW 22 32 - - - - - Partly cloudy - 15.0 1009.8 0.0
04/10:30pm SW 27 36 - - - - - Partly cloudy - 14.8 1009.9 0.0
04/10:00pm SW 25 31 - - - - - Partly cloudy - 15.1 1009.8 0.0
04/09:56pm SW 24 34 - - - - - Partly cloudy - 15.2 1009.6 0.0
04/09:30pm SW 28 34 - - - - - Partly cloudy - 15.3 1009.4 0.0
04/09:00pm SW 25 36 - - - - - Cloudy - 15.2 1008.7 0.0
04/08:46pm SW 25 35 - - - - - Cloudy - 15.3 1008.4 0.0
04/08:30pm SW 27 36 - - - - - Partly cloudy - 15.3 1008.3 0.0
04/08:22pm SW 27 37 - - - - - Partly cloudy - 15.3 1008.2 0.0
04/08:00pm SW 31 39 - - - - - Cloudy - 15.2 1007.7 0.0
04/07:30pm SW 31 38 - - - - - Partly cloudy - 15.5 1007.1 0.0
04/07:00pm SW 30 38 - - - - - Partly cloudy - 15.7 1006.5 0.0
04/06:30pm SW 31 40 - - - - - Partly cloudy - 15.7 1006.0 0.0
04/06:04pm SW 31 41 - - - - - Partly cloudy - 16.0 1005.7 0.0
04/06:00pm SW 33 41 - - - - - Cloudy - 15.3 1005.6 0.0
04/05:45pm SW 31 41 - - - - - Partly cloudy - 15.5 1005.4 0.0
04/05:30pm SW 31 39 - - - - - Partly cloudy - 15.8 1005.2 0.0
04/05:00pm SW 31 39 - - - - - Partly cloudy - 15.2 1004.9 0.0
04/04:40pm SW 33 43 - - - - - Partly cloudy - 15.4 1004.6 0.0
04/04:30pm SW 32 40 - - - - - Partly cloudy - 16.0 1004.6 0.0
04/04:00pm SW 32 43 - - - - - Partly cloudy - 15.4 1004.5 0.0
04/03:58pm SW 32 43 - - - - - Partly cloudy - 15.4 1004.5 0.0
04/03:30pm SW 33 40 - - - - - Partly cloudy - 15.3 1004.2 0.0
04/03:00pm SW 32 39 - - - - - Cloudy - 15.6 1003.8 0.0
04/02:34pm SW 30 40 - - - - - Cloudy - 15.4 1003.5 0.0
04/02:30pm SW 31 40 - - - - - Cloudy - 15.2 1003.5 0.0
04/02:00pm SW 29 42 - - - - - Partly cloudy - 15.2 1003.1 0.0
04/01:36pm SW 29 39 - - - - - Partly cloudy - 15.1 1002.9 0.0
04/01:30pm SW 32 38 - - - - - Cloudy - 15.2 1002.9 0.0
04/01:00pm SW 31 39 - - - - - Partly cloudy - 15.0 1002.8 0.0
04/12:30pm SW 32 42 - - - - - Partly cloudy - 14.9 1002.4 0.0
04/12:14pm SW 29 39 - - - - - Partly cloudy - 15.3 1002.2 0.0
04/12:00pm SW 31 38 - - - - - Cloudy - 15.0 1002.2 0.0
04/11:55am SW 30 40 - - - - - Cloudy - 14.8 1002.1 0.0
04/11:30am SW 32 40 - - - - - Cloudy - 14.8 1001.8 0.0
04/11:00am SW 32 39 - - - - - Cloudy - 14.9 1001.3 0.0
04/10:42am SW 29 39 - - - - - Cloudy - 14.9 1000.9 0.0
04/10:30am SW 30 38 - - - - - Cloudy - 14.7 1000.7 0.0
04/10:00am SW 30 41 - - - - - Partly cloudy - 14.2 1000.3 0.0
04/09:33am SW 27 37 - - - - - Partly cloudy - 14.5 1000.1 0.0
04/09:30am SW 27 37 - - - - - Partly cloudy - 14.1 1000.0 0.0
04/09:12am SW 30 40 - - - - - Partly cloudy - 13.4 999.8 0.0
04/09:00am SW 32 40 - - - - - Cloudy Rain 13.6 999.4 9.4
04/08:31am SW 25 38 - - - - - Partly cloudy - 13.7 998.9 9.2
04/08:30am SW 25 33 - - - - - Partly cloudy - 13.7 998.9 9.2
04/08:05am SW 29 39 - - - - - Partly cloudy - 13.6 998.5 9.2
04/08:00am SW 30 37 - - - - - Partly cloudy - 13.0 998.5 9.2
04/07:30am SW 31 39 - - - - - Partly cloudy - 13.7 998.1 9.0
04/07:00am SW 29 40 - - - - - Partly cloudy - 13.6 997.7 8.6
04/06:51am SW 29 39 - - - - - Partly cloudy - 13.4 997.6 8.6
04/06:45am SW 30 39 - - - - - Partly cloudy - 13.4 997.4 8.6
04/06:30am SW 27 36 - - - - - Partly cloudy - 13.4 997.4 8.6
04/06:06am SW 28 38 - - - - - Partly cloudy - 13.2 997.1 8.6
04/06:00am SW 29 36 - - - - - Mostly cloudy Recent precip. 13.2 996.9 8.6
04/05:46am SW 28 38 - - - - - Partly cloudy - 13.8 996.9 8.6
04/05:40am SW 27 35 - - - - - Partly cloudy - 13.4 996.8 8.6

Other formats

Comma delimited format used in spreadsheet applications
http://www.bom.gov.au/fwo/IDT60701/IDT60701.95954.axf

JavaScript Object Notation format (JSON) in row-major order
http://www.bom.gov.au/fwo/IDT60701/IDT60701.95954.json

Data quality

Most of these data are generated automatically and are frequently updated. Quality checks on data are not normally performed. It is possible for incorrect values to appear. Refer to information at About Latest Weather Observations and please check the disclaimer before using these data.